createdAt,value
2022-11-12T00:02:47.756Z,86.71
2022-11-12T00:06:03.971Z,86.14
2022-11-12T00:09:19.684Z,86.19
2022-11-12T00:12:35.940Z,86.71
2022-11-12T00:15:51.928Z,86.79
2022-11-12T00:19:08.056Z,87.01
2022-11-12T00:22:23.766Z,86.56
2022-11-12T00:25:38.890Z,86.36
2022-11-12T00:28:55.639Z,85.16
2022-11-12T00:32:11.184Z,85.69
2022-11-12T00:35:27.191Z,86.00
2022-11-12T00:38:42.785Z,85.01
2022-11-12T00:41:57.985Z,85.63
2022-11-12T00:45:13.887Z,86.05
2022-11-12T00:48:30.168Z,89.03
2022-11-12T00:51:45.894Z,88.90
2022-11-12T00:55:02.393Z,93.09
2022-11-12T00:58:18.058Z,93.88
2022-11-12T01:01:34.211Z,92.70
2022-11-12T01:04:49.954Z,91.48
2022-11-12T01:08:06.003Z,91.11
2022-11-12T01:11:25.242Z,89.89
2022-11-12T01:14:40.843Z,86.66
2022-11-12T01:17:56.935Z,87.87
2022-11-12T01:21:13.148Z,88.50
2022-11-12T01:24:29.138Z,86.20
2022-11-12T01:27:44.984Z,85.51
2022-11-12T01:31:13.952Z,84.99
2022-11-12T01:34:29.962Z,84.51
2022-11-12T01:37:45.949Z,85.08
2022-11-12T01:41:02.075Z,84.27
2022-11-12T01:44:22.965Z,86.38
2022-11-12T01:47:39.373Z,86.82
2022-11-12T01:50:54.830Z,85.25
2022-11-12T01:54:11.267Z,88.64
2022-11-12T01:57:34.586Z,89.42
2022-11-12T02:00:50.912Z,86.77
2022-11-12T02:04:06.688Z,86.40
2022-11-12T02:07:23.814Z,88.37
2022-11-12T02:10:39.443Z,87.88
2022-11-12T02:13:57.971Z,87.67
2022-11-12T02:17:14.175Z,88.12
2022-11-12T02:20:33.777Z,88.64
2022-11-12T02:24:01.383Z,89.00
2022-11-12T02:27:17.177Z,92.06
2022-11-12T02:30:41.054Z,90.01
2022-11-12T02:33:56.990Z,87.73
2022-11-12T02:37:13.074Z,87.05
2022-11-12T02:40:28.874Z,85.94
2022-11-12T02:43:45.028Z,86.69
2022-11-12T02:47:00.875Z,86.30
2022-11-12T02:50:17.502Z,89.16
2022-11-12T02:53:33.213Z,90.71
2022-11-12T02:56:48.874Z,87.46
2022-11-12T03:00:09.103Z,84.74
2022-11-12T03:03:25.110Z,86.90
2022-11-12T03:06:40.960Z,89.75
2022-11-12T03:09:57.074Z,88.56
2022-11-12T03:13:13.006Z,87.45
2022-11-12T03:16:28.818Z,90.88
2022-11-12T03:19:45.101Z,89.96
2022-11-12T03:23:03.119Z,88.62
2022-11-12T03:26:19.245Z,87.63
2022-11-12T03:29:35.240Z,87.96
2022-11-12T03:32:51.063Z,87.86
2022-11-12T03:36:06.338Z,88.51
2022-11-12T03:39:22.164Z,90.33
2022-11-12T03:42:38.076Z,88.58
2022-11-12T03:45:54.165Z,87.14
2022-11-12T03:49:10.051Z,87.30
2022-11-12T03:52:25.057Z,87.94
2022-11-12T03:55:40.937Z,89.44
2022-11-12T03:58:57.090Z,88.26
2022-11-12T04:02:14.542Z,87.39
2022-11-12T04:06:02.073Z,86.90
2022-11-12T04:09:17.242Z,88.50
2022-11-12T04:12:51.431Z,88.28
2022-11-12T04:16:34.590Z,89.46
2022-11-12T04:20:08.802Z,90.29
2022-11-12T04:23:23.893Z,87.64
2022-11-12T04:26:39.940Z,88.78
2022-11-12T04:30:14.862Z,93.14
2022-11-12T04:33:30.151Z,90.49
2022-11-12T04:36:45.952Z,87.61
2022-11-12T04:40:21.943Z,88.66
2022-11-12T04:43:55.536Z,88.33
2022-11-12T04:47:11.016Z,86.18
2022-11-12T04:50:27.044Z,87.47
2022-11-12T04:53:43.150Z,88.16
2022-11-12T04:56:59.251Z,87.98
2022-11-12T05:00:15.601Z,84.73
2022-11-12T05:03:31.328Z,88.39
2022-11-12T05:06:52.964Z,91.03
2022-11-12T05:10:08.716Z,90.27
2022-11-12T05:13:24.349Z,87.92
2022-11-12T05:16:40.280Z,86.14
2022-11-12T05:19:56.094Z,86.72
2022-11-12T05:23:11.230Z,87.69
2022-11-12T05:26:27.197Z,89.54
2022-11-12T05:29:43.168Z,89.55
2022-11-12T05:32:59.143Z,88.59
2022-11-12T05:36:15.141Z,87.33
2022-11-12T05:39:31.033Z,87.81
2022-11-12T05:42:46.920Z,86.26
2022-11-12T05:46:03.456Z,87.48
2022-11-12T05:49:19.399Z,91.87
2022-11-12T05:52:35.400Z,94.19
2022-11-12T05:55:51.325Z,92.77
2022-11-12T05:59:08.604Z,90.89
2022-11-12T06:02:25.143Z,89.73
2022-11-12T06:05:40.410Z,87.49
2022-11-12T06:08:56.270Z,89.50
2022-11-12T06:12:12.108Z,93.80
2022-11-12T06:15:28.006Z,93.11
2022-11-12T06:18:43.148Z,90.62
2022-11-12T06:21:59.246Z,92.08
2022-11-12T06:25:15.195Z,94.01
2022-11-12T06:28:31.075Z,91.09
2022-11-12T06:31:46.211Z,89.62
2022-11-12T06:35:02.294Z,92.72
2022-11-12T06:38:18.208Z,92.60
2022-11-12T06:41:34.574Z,91.24
2022-11-12T06:44:50.230Z,91.59
2022-11-12T06:48:06.405Z,94.16
2022-11-12T06:51:22.308Z,93.79
2022-11-12T06:54:38.307Z,91.60
2022-11-12T06:57:54.134Z,91.01
2022-11-12T07:01:14.419Z,89.63
2022-11-12T07:04:30.355Z,90.82
2022-11-12T07:07:46.325Z,91.37
2022-11-12T07:11:02.212Z,90.19
2022-11-12T07:14:18.077Z,89.78
2022-11-12T07:17:33.188Z,89.69
2022-11-12T07:20:48.992Z,90.11
2022-11-12T07:24:05.336Z,89.48
2022-11-12T07:27:21.225Z,88.41
2022-11-12T07:30:36.392Z,90.30
2022-11-12T07:33:52.340Z,90.69
2022-11-12T07:37:08.377Z,88.74
2022-11-12T07:40:24.442Z,88.99
2022-11-12T07:43:41.223Z,87.40
2022-11-12T07:46:57.488Z,87.84
2022-11-12T07:50:13.157Z,88.18
2022-11-12T07:53:28.488Z,88.88
2022-11-12T07:56:44.081Z,91.90
2022-11-12T07:59:59.241Z,94.47
2022-11-12T08:03:15.035Z,92.90
2022-11-12T08:06:30.817Z,88.90
2022-11-12T08:09:46.281Z,86.67
2022-11-12T08:13:01.453Z,88.60
2022-11-12T08:16:17.435Z,89.68
2022-11-12T08:19:33.350Z,90.34
2022-11-12T08:22:49.711Z,90.49
2022-11-12T08:26:06.498Z,90.11
2022-11-12T08:29:25.406Z,86.87
2022-11-12T08:32:41.430Z,85.60
2022-11-12T08:35:57.706Z,83.91
2022-11-12T08:39:13.272Z,82.76
2022-11-12T08:42:28.529Z,83.49
2022-11-12T08:45:44.431Z,83.74
2022-11-12T08:49:00.399Z,82.53
2022-11-12T08:52:16.489Z,80.30
2022-11-12T08:55:33.464Z,78.91
2022-11-12T08:58:49.221Z,79.07
2022-11-12T09:02:06.749Z,79.14
2022-11-12T09:05:22.491Z,78.58
2022-11-12T09:08:39.839Z,77.84
2022-11-12T09:11:55.358Z,79.84
2022-11-12T09:18:46.167Z,81.77
2022-11-12T09:22:02.162Z,81.30
2022-11-12T09:25:17.143Z,79.83
2022-11-12T09:28:32.641Z,80.31
2022-11-12T09:31:48.326Z,81.44
2022-11-12T09:35:03.470Z,80.67
2022-11-12T09:38:19.326Z,78.66
2022-11-12T09:41:36.831Z,76.31
2022-11-12T09:45:27.565Z,75.83
2022-11-12T09:48:46.182Z,74.89
2022-11-12T09:52:21.767Z,74.45
2022-11-12T09:55:40.430Z,73.00
2022-11-12T09:58:56.724Z,71.67
2022-11-12T10:02:36.209Z,71.08
2022-11-12T10:05:56.166Z,70.66
2022-11-12T10:09:16.777Z,69.77
2022-11-12T10:12:38.916Z,70.87
2022-11-12T10:16:15.837Z,70.60
2022-11-12T10:19:50.129Z,71.14
2022-11-12T10:23:25.185Z,69.92
2022-11-12T10:26:41.605Z,69.22
2022-11-12T10:29:59.682Z,68.24
2022-11-12T10:33:15.512Z,68.12
2022-11-12T10:36:33.707Z,70.28
2022-11-12T10:39:49.378Z,69.46
2022-11-12T10:43:17.219Z,71.27
2022-11-12T10:46:35.910Z,72.93
2022-11-12T10:50:09.537Z,74.18
2022-11-12T10:53:39.672Z,74.93
2022-11-12T10:56:55.915Z,75.15
2022-11-12T11:00:14.725Z,75.83
2022-11-12T11:03:37.717Z,74.75
2022-11-12T11:07:24.562Z,75.08
2022-11-12T11:10:40.630Z,73.27
2022-11-12T11:13:57.995Z,73.69
2022-11-12T11:17:17.727Z,73.66
2022-11-12T11:20:39.254Z,72.69
2022-11-12T11:24:12.703Z,73.07
2022-11-12T11:27:51.132Z,72.56
2022-11-12T11:31:26.575Z,71.98
2022-11-12T11:35:04.696Z,70.99
2022-11-12T11:38:32.576Z,68.27
2022-11-12T11:42:21.099Z,68.88
2022-11-12T11:45:48.344Z,69.57
2022-11-12T11:49:06.341Z,69.93
2022-11-12T11:52:24.273Z,70.67
2022-11-12T11:55:54.412Z,71.50
2022-11-12T11:59:22.339Z,73.78
2022-11-12T12:03:15.368Z,71.93
2022-11-12T12:06:34.465Z,71.53
2022-11-12T12:09:56.260Z,72.47
2022-11-12T12:13:44.007Z,72.64
2022-11-12T12:17:16.065Z,72.95
2022-11-12T12:20:42.821Z,74.00
2022-11-12T12:24:02.727Z,74.37
2022-11-12T12:27:23.054Z,75.35
2022-11-12T12:30:41.484Z,76.04
2022-11-12T12:34:01.121Z,75.41
2022-11-12T12:37:36.069Z,73.46
2022-11-12T12:41:07.007Z,71.24
2022-11-12T12:44:42.686Z,70.34
2022-11-12T12:47:58.972Z,70.68
2022-11-12T12:51:14.278Z,71.35
2022-11-12T12:54:42.708Z,71.62
2022-11-12T12:58:01.272Z,73.71
2022-11-12T13:01:22.991Z,72.78
2022-11-12T13:04:57.044Z,72.11
2022-11-12T13:08:21.116Z,72.10
2022-11-12T13:12:05.458Z,72.44
2022-11-12T13:15:21.121Z,74.73
2022-11-12T13:18:42.133Z,76.35
2022-11-12T13:22:19.479Z,76.57
2022-11-12T13:25:34.986Z,73.55
2022-11-12T13:29:21.755Z,71.19
2022-11-12T13:32:46.242Z,70.66
2022-11-12T13:36:18.036Z,68.84
2022-11-12T13:39:35.314Z,67.94
2022-11-12T13:42:52.267Z,65.37
2022-11-12T13:46:11.555Z,66.56
2022-11-12T13:49:27.647Z,68.00
2022-11-12T13:52:43.590Z,68.66
2022-11-12T13:55:59.788Z,70.32
2022-11-12T13:59:15.655Z,72.05
2022-11-12T14:02:31.516Z,73.00
2022-11-12T14:05:48.749Z,73.67
2022-11-12T14:09:22.802Z,73.90
2022-11-12T14:13:09.985Z,73.37
2022-11-12T14:16:40.995Z,72.81
2022-11-12T14:20:08.787Z,73.26
2022-11-12T14:23:25.425Z,73.74
2022-11-12T14:26:42.574Z,73.83
2022-11-12T14:30:10.622Z,74.50
2022-11-12T14:33:27.891Z,74.83
2022-11-12T14:36:43.540Z,75.06
2022-11-12T14:39:59.408Z,75.18
2022-11-12T14:43:36.539Z,75.65
2022-11-12T14:46:55.184Z,76.76
2022-11-12T14:50:22.135Z,77.48
2022-11-12T14:53:40.442Z,77.96
2022-11-12T14:56:55.595Z,77.31
2022-11-12T15:00:25.281Z,77.21
2022-11-12T15:03:40.688Z,77.35
2022-11-12T15:06:57.771Z,77.66
2022-11-12T15:10:36.018Z,78.21
2022-11-12T15:13:52.650Z,79.04
2022-11-12T15:17:34.631Z,79.33
2022-11-12T15:21:12.091Z,79.79
2022-11-12T15:24:33.251Z,80.01
2022-11-12T15:27:49.116Z,79.98
2022-11-12T15:31:23.145Z,80.44
2022-11-12T15:34:42.094Z,81.30
2022-11-12T15:37:57.608Z,81.40
2022-11-12T15:41:23.212Z,81.14
2022-11-12T15:44:38.623Z,80.81
2022-11-12T15:47:54.662Z,81.74
2022-11-12T15:51:10.989Z,81.04
2022-11-12T15:54:26.757Z,81.43
2022-11-12T15:57:52.184Z,80.69
2022-11-12T16:01:07.913Z,81.00
2022-11-12T16:04:23.614Z,81.33
2022-11-12T16:07:39.714Z,81.42
2022-11-12T16:10:55.514Z,80.67
2022-11-12T16:14:13.148Z,80.26
2022-11-12T16:17:28.459Z,79.35
2022-11-12T16:20:44.740Z,79.13
2022-11-12T16:24:00.634Z,79.75
2022-11-12T16:27:17.454Z,81.53
2022-11-12T16:30:34.081Z,83.36
2022-11-12T16:33:49.701Z,84.21
2022-11-12T16:37:05.738Z,83.27
2022-11-12T16:40:23.602Z,82.62
2022-11-12T16:43:39.182Z,82.75
2022-11-12T16:46:55.678Z,83.13
2022-11-12T16:50:12.589Z,82.34
2022-11-12T16:53:27.887Z,82.48
2022-11-12T16:56:43.893Z,82.20
2022-11-12T16:59:59.690Z,81.29
2022-11-12T17:03:16.039Z,81.83
2022-11-12T17:06:34.089Z,82.78
2022-11-12T17:09:51.479Z,81.92
2022-11-12T17:13:12.213Z,81.82
2022-11-12T17:16:28.305Z,82.30
2022-11-12T17:19:43.578Z,83.21
2022-11-12T17:22:59.954Z,83.79
2022-11-12T17:26:19.575Z,84.33
2022-11-12T17:29:36.162Z,85.15
2022-11-12T17:32:51.826Z,85.60
2022-11-12T17:36:08.717Z,87.06
2022-11-12T17:39:23.964Z,88.82
2022-11-12T17:42:39.627Z,90.01
2022-11-12T17:45:55.402Z,91.41
2022-11-12T17:49:10.391Z,90.38
2022-11-12T17:52:25.741Z,88.23
2022-11-12T17:55:41.676Z,86.07
2022-11-12T17:58:57.770Z,84.22
2022-11-12T18:02:13.975Z,83.25
2022-11-12T18:05:30.578Z,85.21
2022-11-12T18:08:45.961Z,87.93
2022-11-12T18:12:01.810Z,88.44
2022-11-12T18:15:17.865Z,87.52
2022-11-12T18:18:33.654Z,86.85
2022-11-12T18:21:49.632Z,86.11
2022-11-12T18:25:06.435Z,87.22
2022-11-12T18:28:21.657Z,89.99
2022-11-12T18:31:36.941Z,91.34
2022-11-12T18:34:52.837Z,91.07
2022-11-12T18:38:08.630Z,89.05
2022-11-12T18:41:26.705Z,87.39
2022-11-12T18:44:42.959Z,86.29
2022-11-12T18:47:58.722Z,85.72
2022-11-12T18:51:15.909Z,85.92
2022-11-12T18:54:31.887Z,85.52
2022-11-12T18:57:47.816Z,85.52
2022-11-12T19:01:07.445Z,86.59
2022-11-12T19:04:22.733Z,87.45
2022-11-12T19:07:39.186Z,89.04
2022-11-12T19:11:02.564Z,92.22
2022-11-12T19:14:18.713Z,94.48
2022-11-12T19:17:33.783Z,89.99
2022-11-12T19:20:49.787Z,84.82
2022-11-12T19:24:06.348Z,83.31
2022-11-12T19:27:21.850Z,82.62
2022-11-12T19:30:37.687Z,83.10
2022-11-12T19:33:53.897Z,84.03
2022-11-12T19:37:32.281Z,84.52
2022-11-12T19:40:45.707Z,87.00
2022-11-12T19:44:00.833Z,87.74
2022-11-12T19:47:16.757Z,87.37
2022-11-12T19:50:34.641Z,86.87
2022-11-12T19:53:51.000Z,85.81
2022-11-12T19:57:06.844Z,86.34
2022-11-12T20:00:22.744Z,86.46
2022-11-12T20:03:38.858Z,86.86
2022-11-12T20:06:55.091Z,85.62
2022-11-12T20:10:10.735Z,84.83
2022-11-12T20:13:26.756Z,83.56
2022-11-12T20:16:42.765Z,82.66
2022-11-12T20:19:57.893Z,85.63
2022-11-12T20:23:14.019Z,86.94
2022-11-12T20:26:29.889Z,88.25
2022-11-12T20:29:46.005Z,89.35
2022-11-12T20:33:01.959Z,88.67
2022-11-12T20:36:20.070Z,86.49
2022-11-12T20:39:36.230Z,84.83
2022-11-12T20:42:52.060Z,83.01
2022-11-12T20:46:07.844Z,84.50
2022-11-12T20:49:23.844Z,86.58
2022-11-12T20:52:38.857Z,87.84
2022-11-12T20:55:54.931Z,87.97
2022-11-12T20:59:11.082Z,86.64
2022-11-12T21:02:27.221Z,86.61
2022-11-12T21:05:43.213Z,86.76
2022-11-12T21:08:59.898Z,86.20
2022-11-12T21:12:16.132Z,87.85
2022-11-12T21:15:31.696Z,86.83
2022-11-12T21:18:47.988Z,88.00
2022-11-12T21:22:03.922Z,87.88
2022-11-12T21:25:19.985Z,87.77
2022-11-12T21:28:38.285Z,87.58
2022-11-12T21:31:53.874Z,88.67
2022-11-12T21:35:10.040Z,88.27
2022-11-12T21:38:29.931Z,89.96
2022-11-12T21:41:45.713Z,89.70
2022-11-12T21:45:01.056Z,89.62
2022-11-12T21:48:17.092Z,89.76
2022-11-12T21:51:32.935Z,89.31
2022-11-12T21:54:49.149Z,88.68
2022-11-12T21:58:05.070Z,88.86
2022-11-12T22:01:23.002Z,87.10
2022-11-12T22:04:39.203Z,88.97
2022-11-12T22:07:55.095Z,88.70
2022-11-12T22:11:15.475Z,89.24
2022-11-12T22:14:30.807Z,90.53
2022-11-12T22:17:46.207Z,90.91
2022-11-12T22:21:04.111Z,90.87
2022-11-12T22:24:20.139Z,90.51
2022-11-12T22:27:36.081Z,90.78
2022-11-12T22:30:52.259Z,89.31
2022-11-12T22:34:09.063Z,89.12
2022-11-12T22:37:25.115Z,89.64
2022-11-12T22:40:40.963Z,90.25
2022-11-12T22:44:00.923Z,91.57
2022-11-12T22:47:17.119Z,92.67
2022-11-12T22:50:33.295Z,92.52
2022-11-12T22:53:53.165Z,92.11
2022-11-12T22:57:08.910Z,92.01
2022-11-12T23:00:31.018Z,91.45
2022-11-12T23:03:47.517Z,91.02
2022-11-12T23:07:03.025Z,89.89
2022-11-12T23:10:19.460Z,88.42
2022-11-12T23:13:35.179Z,88.34
2022-11-12T23:16:51.069Z,90.54
2022-11-12T23:20:07.300Z,93.67
2022-11-12T23:23:22.842Z,92.96
2022-11-12T23:26:38.138Z,92.20
2022-11-12T23:29:54.239Z,92.79
2022-11-12T23:33:10.007Z,92.43
2022-11-12T23:36:26.457Z,91.58
2022-11-12T23:39:41.645Z,89.34
2022-11-12T23:42:58.383Z,88.89
2022-11-12T23:46:14.077Z,89.71
2022-11-12T23:49:30.008Z,88.96
2022-11-12T23:52:46.387Z,87.87
2022-11-12T23:56:02.120Z,87.99
2022-11-12T23:59:18.475Z,87.80
